ADDS METAR Data INFO
IDs: Format: Raw Decoded Include TAF

Data at: 0352 UTC 19 Jul 2018

KDMO 190253Z AUTO 00000KT 5SM -RA BR FEW034 BKN047 OVC080 24/22 A2996 RMK AO2 RAB16 SLP136 P0015 60015 T02440222 53002
KDMO 190153Z AUTO 14005KT 10SM BKN044 OVC075 27/21 A2995 RMK AO2 SLP132 T02720211
KDMO 190053Z AUTO 13008KT 10SM FEW075 28/21 A2994 RMK AO2 SLP130 T02780211
KDMO 182353Z AUTO 12009G18KT 10SM BKN090 29/22 A2995 RMK AO2 SLP133 T02890217 10306 20244 55008
KDMO 182253Z AUTO 13008G19KT 10SM CLR 31/22 A2995 RMK AO2 SLP131 T03060217
KDMO 182153Z AUTO 12011KT 10SM CLR 30/22 A2995 RMK AO2 SLP133 T03000217
KDMO 182053Z AUTO 12013KT 10SM FEW027 BKN090 BKN110 29/22 A2997 RMK AO2 SLP141 T02890217 58013
KDMO 181953Z AUTO 13011KT 10SM FEW022 BKN070 30/22 A3000 RMK AO2 SLP149 T03000222
KDMO 181935Z AUTO 13012KT 10SM FEW019 BKN070 28/22 A3001 RMK AO2 T02830222
KDMO 181853Z AUTO 12012KT 10SM BKN016 BKN070 27/22 A3001 RMK AO2 SLP155 T02720222
KDMO 181851Z AUTO 11014KT 10SM BKN016 BKN070 27/22 A3001 RMK AO2
KDMO 181753Z AUTO 11007KT 10SM OVC060 24/23 A3003 RMK AO2 RAB1656E35 SLP163 P0003 60006 T02440228 10244 20228 58006
KDMO 181713Z AUTO 13007KT 5SM -RA BR SCT013 SCT046 OVC060 24/22 A3005 RMK AO2 RAB1656 P0002 T02390217
KDMO 181653Z AUTO 12007KT 10SM OVC013 24/22 A3005 RMK AO2 RAE47 SLP168 P0001 T02390217
KDMO 181553Z AUTO 12009KT 10SM -RA OVC010 23/22 A3006 RMK AO2 RAB30 SLP171 P0001 T02330217
KDMO 181546Z AUTO 13009KT 8SM -RA OVC010 23/22 A3006 RMK AO2 RAB30 P0001 T02330217
KDMO 181453Z AUTO 13008KT 10SM BKN008 OVC040 24/22 A3005 RMK AO2 SLP168 60001 T02440222 58002
KDMO 181445Z AUTO 13007KT 10SM BKN008 OVC040 24/22 A3005 RMK AO2 T02440222
KDMO 181411Z AUTO 13009KT 10SM SCT008 BKN035 OVC043 23/22 A3005 RMK AO2 T02330217
KDMO 181353Z AUTO 11008KT 10SM BKN009 BKN032 23/22 A3006 RMK AO2 RAE08 CIG 006V011 SLP169 P0000 T02330217
KDMO 181350Z AUTO 11007KT 10SM BKN009 OVC032 23/22 A3006 RMK AO2 RAE08 CIG 006V011 P0000
KDMO 181337Z AUTO 11004KT 10SM SCT007 BKN029 BKN039 23/22 A3006 RMK AO2 RAE08 P0000 T02330217
KDMO 181253Z AUTO 10006KT 10SM -RA FEW036 BKN080 OVC120 23/21 A3006 RMK AO2 RAB02 SLP170 P0001 T02280211
KDMO 181153Z AUTO 13003KT 10SM BKN043 BKN055 OVC100 23/21 A3005 RMK AO2 SLP168 T02280206 10244 20228 53000
KDMO 181053Z AUTO 13004KT 10SM FEW049 SCT055 BKN080 23/20 A3004 RMK AO2 LTG DSNT SE AND S SLP163 T02280200
KDMO 180953Z AUTO 17003KT 10SM SCT041 BKN055 BKN075 23/19 A3005 RMK AO2 SLP165 T02280194
KDMO 180853Z AUTO 24006KT 10SM SCT037 23/19 A3005 RMK AO2 LTG DSNT S SLP167 T02280189 55001
KDMO 180753Z AUTO 09005KT 10SM SCT055 23/19 A3004 RMK AO2 LTG DSNT SW SLP163 T02280189
KDMO 180653Z AUTO 08004KT 10SM FEW050 23/18 A3005 RMK AO2 SLP166 T02330183
KDMO 180553Z AUTO 11006KT 10SM CLR 24/18 A3006 RMK AO2 SLP168 T02440178 10289 20239 403220222 58001
KDMO 180453Z AUTO 03004KT 10SM FEW045 SCT060 SCT075 24/18 A3006 RMK AO2 SLP171 T02390183
KDMO 180353Z AUTO 07005KT 10SM FEW060 26/18 A3006 RMK AO2 SLP169 T02560178
KDMO 180253Z AUTO 05005KT 10SM CLR 26/18 A3006 RMK AO2 SLP169 T02610178 53009
KDMO 180153Z AUTO 06006KT 10SM CLR 28/20 A3004 RMK AO2 SLP163 T02780200
KDMO 180053Z AUTO 07004KT 10SM CLR 28/22 A3004 RMK AO2 SLP163 T02830217
KDMO 172353Z AUTO 07005KT 10SM CLR 29/21 A3003 RMK AO2 SLP161 T02890211 10322 20289 55006
KDMO 172253Z AUTO 06009KT 10SM CLR 30/22 A3002 RMK AO2 SLP158 T03000222
KDMO 172153Z AUTO 06007KT 10SM CLR 31/22 A3004 RMK AO2 SLP162 T03110222
KDMO 172053Z AUTO 06007KT 10SM CLR 32/23 A3005 RMK AO2 SLP166 T03220228 58007
KDMO 171953Z AUTO 05005KT 10SM CLR 32/23 A3006 RMK AO2 SLP171 T03170228
KDMO 171853Z AUTO 09003KT 10SM CLR 31/23 A3007 RMK AO2 SLP171 T03060228
KDMO 171753Z AUTO 05004KT 10SM CLR 31/23 A3007 RMK AO2 SLP173 T03060228 10306 20233 58004
KDMO 171653Z AUTO 00000KT 10SM CLR 30/23 A3010 RMK AO2 SLP182 T03000228
KDMO 171553Z AUTO 11006KT 10SM CLR 29/22 A3008 RMK AO2 SLP177 T02890222